sensor_id;sensor_type;location;lat;lon;timestamp;P1;durP1;ratioP1;P2;durP2;ratioP2
6858;SDS011;3468;42.824;23.240;2023-05-13T00:02:04;3.77;;;2.33;;
6858;SDS011;3468;42.824;23.240;2023-05-13T00:04:32;3.53;;;2.50;;
6858;SDS011;3468;42.824;23.240;2023-05-13T00:06:59;4.97;;;2.50;;
6858;SDS011;3468;42.824;23.240;2023-05-13T00:09:25;4.37;;;2.37;;
6858;SDS011;3468;42.824;23.240;2023-05-13T00:11:53;5.17;;;2.63;;
6858;SDS011;3468;42.824;23.240;2023-05-13T00:14:20;2.97;;;2.30;;
6858;SDS011;3468;42.824;23.240;2023-05-13T00:16:47;4.40;;;2.60;;
6858;SDS011;3468;42.824;23.240;2023-05-13T00:19:14;7.10;;;2.53;;
6858;SDS011;3468;42.824;23.240;2023-05-13T00:21:40;4.33;;;2.23;;
6858;SDS011;3468;42.824;23.240;2023-05-13T00:24:07;4.87;;;2.50;;
6858;SDS011;3468;42.824;23.240;2023-05-13T00:26:34;5.00;;;2.87;;
6858;SDS011;3468;42.824;23.240;2023-05-13T00:29:02;3.03;;;2.60;;
6858;SDS011;3468;42.824;23.240;2023-05-13T00:31:28;6.67;;;2.70;;
6858;SDS011;3468;42.824;23.240;2023-05-13T00:33:55;5.50;;;2.80;;
6858;SDS011;3468;42.824;23.240;2023-05-13T00:36:22;4.20;;;3.00;;
6858;SDS011;3468;42.824;23.240;2023-05-13T00:38:51;7.43;;;2.77;;
6858;SDS011;3468;42.824;23.240;2023-05-13T00:41:18;3.43;;;2.37;;
6858;SDS011;3468;42.824;23.240;2023-05-13T00:43:45;6.80;;;2.90;;
6858;SDS011;3468;42.824;23.240;2023-05-13T00:46:14;3.50;;;2.30;;
6858;SDS011;3468;42.824;23.240;2023-05-13T00:48:41;7.13;;;2.23;;
6858;SDS011;3468;42.824;23.240;2023-05-13T00:51:08;3.17;;;2.23;;
6858;SDS011;3468;42.824;23.240;2023-05-13T00:53:35;3.23;;;2.53;;
6858;SDS011;3468;42.824;23.240;2023-05-13T00:56:04;4.27;;;2.63;;
6858;SDS011;3468;42.824;23.240;2023-05-13T00:58:31;5.50;;;2.37;;
6858;SDS011;3468;42.824;23.240;2023-05-13T01:01:01;5.67;;;2.17;;
6858;SDS011;3468;42.824;23.240;2023-05-13T01:03:40;3.33;;;2.60;;
6858;SDS011;3468;42.824;23.240;2023-05-13T01:06:17;3.13;;;2.27;;
6858;SDS011;3468;42.824;23.240;2023-05-13T01:08:51;3.83;;;2.20;;
6858;SDS011;3468;42.824;23.240;2023-05-13T01:11:24;3.03;;;2.37;;
6858;SDS011;3468;42.824;23.240;2023-05-13T01:13:56;4.77;;;2.13;;
6858;SDS011;3468;42.824;23.240;2023-05-13T01:16:29;3.53;;;2.03;;
6858;SDS011;3468;42.824;23.240;2023-05-13T01:19:01;2.97;;;2.13;;
6858;SDS011;3468;42.824;23.240;2023-05-13T01:21:35;7.03;;;2.60;;
6858;SDS011;3468;42.824;23.240;2023-05-13T01:24:04;2.80;;;2.20;;
6858;SDS011;3468;42.824;23.240;2023-05-13T01:26:31;2.80;;;2.20;;
6858;SDS011;3468;42.824;23.240;2023-05-13T01:28:58;3.10;;;2.30;;
6858;SDS011;3468;42.824;23.240;2023-05-13T01:31:24;4.50;;;2.20;;
6858;SDS011;3468;42.824;23.240;2023-05-13T01:33:51;3.00;;;1.80;;
6858;SDS011;3468;42.824;23.240;2023-05-13T01:36:18;4.97;;;2.30;;
6858;SDS011;3468;42.824;23.240;2023-05-13T01:38:47;3.87;;;2.40;;
6858;SDS011;3468;42.824;23.240;2023-05-13T01:41:15;3.47;;;2.50;;
6858;SDS011;3468;42.824;23.240;2023-05-13T01:43:42;3.17;;;2.13;;
6858;SDS011;3468;42.824;23.240;2023-05-13T01:46:12;4.00;;;2.33;;
6858;SDS011;3468;42.824;23.240;2023-05-13T01:48:39;6.03;;;2.27;;
6858;SDS011;3468;42.824;23.240;2023-05-13T01:51:05;5.50;;;2.70;;
6858;SDS011;3468;42.824;23.240;2023-05-13T01:53:32;2.40;;;2.07;;
6858;SDS011;3468;42.824;23.240;2023-05-13T01:56:00;4.80;;;2.23;;
6858;SDS011;3468;42.824;23.240;2023-05-13T01:58:27;5.53;;;2.33;;
6858;SDS011;3468;42.824;23.240;2023-05-13T02:00:54;4.40;;;2.30;;
6858;SDS011;3468;42.824;23.240;2023-05-13T02:03:20;3.10;;;2.40;;
6858;SDS011;3468;42.824;23.240;2023-05-13T02:05:47;3.93;;;2.10;;
6858;SDS011;3468;42.824;23.240;2023-05-13T02:08:14;5.43;;;2.13;;
6858;SDS011;3468;42.824;23.240;2023-05-13T02:10:40;2.50;;;2.10;;
6858;SDS011;3468;42.824;23.240;2023-05-13T02:13:08;6.17;;;2.37;;
6858;SDS011;3468;42.824;23.240;2023-05-13T02:15:36;4.17;;;2.30;;
6858;SDS011;3468;42.824;23.240;2023-05-13T02:18:03;2.80;;;2.20;;
6858;SDS011;3468;42.824;23.240;2023-05-13T02:20:29;3.60;;;2.47;;
6858;SDS011;3468;42.824;23.240;2023-05-13T02:22:56;6.07;;;2.33;;
6858;SDS011;3468;42.824;23.240;2023-05-13T02:25:23;3.20;;;2.37;;
6858;SDS011;3468;42.824;23.240;2023-05-13T02:27:49;2.60;;;2.37;;
6858;SDS011;3468;42.824;23.240;2023-05-13T02:30:18;3.17;;;2.50;;
6858;SDS011;3468;42.824;23.240;2023-05-13T02:32:45;3.90;;;2.40;;
6858;SDS011;3468;42.824;23.240;2023-05-13T02:35:12;4.37;;;2.50;;
6858;SDS011;3468;42.824;23.240;2023-05-13T02:37:39;3.80;;;2.37;;
6858;SDS011;3468;42.824;23.240;2023-05-13T02:40:06;3.77;;;2.67;;
6858;SDS011;3468;42.824;23.240;2023-05-13T02:42:33;2.70;;;2.03;;
6858;SDS011;3468;42.824;23.240;2023-05-13T02:45:00;4.00;;;2.63;;
6858;SDS011;3468;42.824;23.240;2023-05-13T02:47:28;2.90;;;2.27;;
6858;SDS011;3468;42.824;23.240;2023-05-13T02:49:55;4.13;;;2.30;;
6858;SDS011;3468;42.824;23.240;2023-05-13T02:52:22;3.53;;;2.40;;
6858;SDS011;3468;42.824;23.240;2023-05-13T02:54:49;4.53;;;2.20;;
6858;SDS011;3468;42.824;23.240;2023-05-13T02:57:15;3.67;;;2.57;;
6858;SDS011;3468;42.824;23.240;2023-05-13T02:59:42;5.63;;;2.43;;
6858;SDS011;3468;42.824;23.240;2023-05-13T03:02:09;4.10;;;2.50;;
6858;SDS011;3468;42.824;23.240;2023-05-13T03:04:37;6.13;;;2.57;;
6858;SDS011;3468;42.824;23.240;2023-05-13T03:07:05;5.90;;;2.77;;
6858;SDS011;3468;42.824;23.240;2023-05-13T03:09:32;3.93;;;2.10;;
6858;SDS011;3468;42.824;23.240;2023-05-13T03:11:59;4.00;;;2.47;;
6858;SDS011;3468;42.824;23.240;2023-05-13T03:14:25;3.83;;;2.30;;
6858;SDS011;3468;42.824;23.240;2023-05-13T03:16:52;5.00;;;2.90;;
6858;SDS011;3468;42.824;23.240;2023-05-13T03:19:19;3.83;;;2.53;;
6858;SDS011;3468;42.824;23.240;2023-05-13T03:21:47;5.67;;;2.43;;
6858;SDS011;3468;42.824;23.240;2023-05-13T03:24:14;3.57;;;2.30;;
6858;SDS011;3468;42.824;23.240;2023-05-13T03:26:40;4.80;;;2.80;;
6858;SDS011;3468;42.824;23.240;2023-05-13T03:29:07;3.87;;;2.63;;
6858;SDS011;3468;42.824;23.240;2023-05-13T03:31:34;4.60;;;2.70;;
6858;SDS011;3468;42.824;23.240;2023-05-13T03:34:00;4.17;;;2.60;;
6858;SDS011;3468;42.824;23.240;2023-05-13T03:36:27;3.87;;;2.70;;
6858;SDS011;3468;42.824;23.240;2023-05-13T03:38:55;2.93;;;2.20;;
6858;SDS011;3468;42.824;23.240;2023-05-13T03:41:22;4.87;;;2.60;;
6858;SDS011;3468;42.824;23.240;2023-05-13T03:43:49;4.97;;;2.87;;
6858;SDS011;3468;42.824;23.240;2023-05-13T03:46:16;4.13;;;2.40;;
6858;SDS011;3468;42.824;23.240;2023-05-13T03:48:42;3.23;;;2.43;;
6858;SDS011;3468;42.824;23.240;2023-05-13T03:51:09;5.83;;;2.57;;
6858;SDS011;3468;42.824;23.240;2023-05-13T03:53:36;3.47;;;2.23;;
6858;SDS011;3468;42.824;23.240;2023-05-13T03:56:04;4.00;;;2.23;;
6858;SDS011;3468;42.824;23.240;2023-05-13T03:58:31;5.40;;;2.70;;
6858;SDS011;3468;42.824;23.240;2023-05-13T04:00:58;5.10;;;2.80;;
6858;SDS011;3468;42.824;23.240;2023-05-13T04:03:25;3.30;;;2.50;;
6858;SDS011;3468;42.824;23.240;2023-05-13T04:05:51;4.63;;;2.20;;
6858;SDS011;3468;42.824;23.240;2023-05-13T04:08:18;3.73;;;2.60;;
6858;SDS011;3468;42.824;23.240;2023-05-13T04:10:45;2.93;;;2.60;;
6858;SDS011;3468;42.824;23.240;2023-05-13T04:13:13;4.03;;;2.83;;
6858;SDS011;3468;42.824;23.240;2023-05-13T04:15:40;4.73;;;2.80;;
6858;SDS011;3468;42.824;23.240;2023-05-13T04:18:06;3.97;;;2.50;;
6858;SDS011;3468;42.824;23.240;2023-05-13T04:20:33;4.50;;;2.43;;
6858;SDS011;3468;42.824;23.240;2023-05-13T04:23:00;5.37;;;2.93;;
6858;SDS011;3468;42.824;23.240;2023-05-13T04:25:26;3.87;;;2.57;;
6858;SDS011;3468;42.824;23.240;2023-05-13T04:27:53;3.17;;;2.53;;
6858;SDS011;3468;42.824;23.240;2023-05-13T04:30:21;3.50;;;2.20;;
6858;SDS011;3468;42.824;23.240;2023-05-13T04:32:48;10.63;;;2.97;;
6858;SDS011;3468;42.824;23.240;2023-05-13T04:35:15;3.90;;;2.50;;
6858;SDS011;3468;42.824;23.240;2023-05-13T04:37:42;3.23;;;2.10;;
6858;SDS011;3468;42.824;23.240;2023-05-13T04:40:09;3.20;;;2.30;;
6858;SDS011;3468;42.824;23.240;2023-05-13T04:42:36;6.07;;;2.47;;
6858;SDS011;3468;42.824;23.240;2023-05-13T04:45:03;2.77;;;2.10;;
6858;SDS011;3468;42.824;23.240;2023-05-13T04:47:32;2.63;;;2.10;;
6858;SDS011;3468;42.824;23.240;2023-05-13T04:49:59;5.07;;;2.37;;
6858;SDS011;3468;42.824;23.240;2023-05-13T04:52:26;2.87;;;2.17;;
6858;SDS011;3468;42.824;23.240;2023-05-13T04:54:52;3.23;;;2.27;;
6858;SDS011;3468;42.824;23.240;2023-05-13T04:57:19;6.83;;;2.50;;
6858;SDS011;3468;42.824;23.240;2023-05-13T04:59:46;5.60;;;2.63;;
6858;SDS011;3468;42.824;23.240;2023-05-13T05:02:12;3.77;;;2.20;;
6858;SDS011;3468;42.824;23.240;2023-05-13T05:04:40;4.43;;;2.20;;
6858;SDS011;3468;42.824;23.240;2023-05-13T05:07:07;4.53;;;2.43;;
6858;SDS011;3468;42.824;23.240;2023-05-13T05:09:34;2.87;;;2.00;;
6858;SDS011;3468;42.824;23.240;2023-05-13T05:12:00;3.93;;;2.50;;
6858;SDS011;3468;42.824;23.240;2023-05-13T05:14:27;4.43;;;1.93;;
6858;SDS011;3468;42.824;23.240;2023-05-13T05:16:54;3.07;;;2.17;;
6858;SDS011;3468;42.824;23.240;2023-05-13T05:19:20;5.37;;;2.17;;
6858;SDS011;3468;42.824;23.240;2023-05-13T05:21:49;3.47;;;2.47;;
6858;SDS011;3468;42.824;23.240;2023-05-13T05:24:16;2.80;;;2.20;;
6858;SDS011;3468;42.824;23.240;2023-05-13T05:26:42;5.17;;;2.60;;
6858;SDS011;3468;42.824;23.240;2023-05-13T05:29:09;3.80;;;2.10;;
6858;SDS011;3468;42.824;23.240;2023-05-13T05:31:36;3.13;;;2.23;;
6858;SDS011;3468;42.824;23.240;2023-05-13T05:34:03;3.37;;;2.20;;
6858;SDS011;3468;42.824;23.240;2023-05-13T05:36:30;4.23;;;2.50;;
6858;SDS011;3468;42.824;23.240;2023-05-13T05:38:58;3.10;;;2.00;;
6858;SDS011;3468;42.824;23.240;2023-05-13T05:41:25;2.57;;;2.07;;
6858;SDS011;3468;42.824;23.240;2023-05-13T05:43:52;2.93;;;2.00;;
6858;SDS011;3468;42.824;23.240;2023-05-13T05:46:18;4.37;;;2.20;;
6858;SDS011;3468;42.824;23.240;2023-05-13T05:48:46;4.40;;;2.17;;
6858;SDS011;3468;42.824;23.240;2023-05-13T05:51:13;4.67;;;2.00;;
6858;SDS011;3468;42.824;23.240;2023-05-13T05:53:40;3.17;;;1.87;;
6858;SDS011;3468;42.824;23.240;2023-05-13T05:56:08;5.50;;;2.40;;
6858;SDS011;3468;42.824;23.240;2023-05-13T05:58:35;7.33;;;2.10;;
6858;SDS011;3468;42.824;23.240;2023-05-13T06:01:02;3.00;;;2.17;;
6858;SDS011;3468;42.824;23.240;2023-05-13T06:03:29;6.40;;;2.60;;
6858;SDS011;3468;42.824;23.240;2023-05-13T06:05:56;3.90;;;2.10;;
6858;SDS011;3468;42.824;23.240;2023-05-13T06:08:23;6.20;;;2.33;;
6858;SDS011;3468;42.824;23.240;2023-05-13T06:10:54;2.33;;;2.00;;
6858;SDS011;3468;42.824;23.240;2023-05-13T06:13:22;3.20;;;2.20;;
6858;SDS011;3468;42.824;23.240;2023-05-13T06:15:49;5.53;;;2.33;;
6858;SDS011;3468;42.824;23.240;2023-05-13T06:18:16;4.93;;;2.50;;
6858;SDS011;3468;42.824;23.240;2023-05-13T06:20:43;3.27;;;2.40;;
6858;SDS011;3468;42.824;23.240;2023-05-13T06:23:10;3.00;;;2.40;;
6858;SDS011;3468;42.824;23.240;2023-05-13T06:25:38;4.63;;;2.63;;
6858;SDS011;3468;42.824;23.240;2023-05-13T06:28:05;4.13;;;2.10;;
6858;SDS011;3468;42.824;23.240;2023-05-13T06:30:33;4.70;;;2.40;;
6858;SDS011;3468;42.824;23.240;2023-05-13T06:33:02;6.17;;;2.40;;
6858;SDS011;3468;42.824;23.240;2023-05-13T06:35:28;2.83;;;2.63;;
6858;SDS011;3468;42.824;23.240;2023-05-13T06:37:55;7.37;;;2.70;;
6858;SDS011;3468;42.824;23.240;2023-05-13T06:40:22;4.83;;;2.30;;
6858;SDS011;3468;42.824;23.240;2023-05-13T06:42:49;3.43;;;2.70;;
6858;SDS011;3468;42.824;23.240;2023-05-13T06:45:15;2.63;;;2.20;;
6858;SDS011;3468;42.824;23.240;2023-05-13T06:47:43;2.97;;;2.10;;
6858;SDS011;3468;42.824;23.240;2023-05-13T06:50:10;3.07;;;2.40;;
6858;SDS011;3468;42.824;23.240;2023-05-13T06:52:37;3.33;;;2.10;;
6858;SDS011;3468;42.824;23.240;2023-05-13T06:55:04;3.83;;;2.23;;
6858;SDS011;3468;42.824;23.240;2023-05-13T06:57:31;6.53;;;2.43;;
6858;SDS011;3468;42.824;23.240;2023-05-13T06:59:58;5.63;;;2.63;;
6858;SDS011;3468;42.824;23.240;2023-05-13T07:02:25;4.07;;;2.50;;
6858;SDS011;3468;42.824;23.240;2023-05-13T07:04:53;6.03;;;2.67;;
6858;SDS011;3468;42.824;23.240;2023-05-13T07:07:20;3.47;;;2.40;;
6858;SDS011;3468;42.824;23.240;2023-05-13T07:09:47;5.40;;;2.40;;
6858;SDS011;3468;42.824;23.240;2023-05-13T07:12:14;5.07;;;2.70;;
6858;SDS011;3468;42.824;23.240;2023-05-13T07:14:40;5.13;;;2.70;;
6858;SDS011;3468;42.824;23.240;2023-05-13T07:17:09;3.50;;;2.50;;
6858;SDS011;3468;42.824;23.240;2023-05-13T07:19:35;4.43;;;2.17;;
6858;SDS011;3468;42.824;23.240;2023-05-13T07:22:04;3.50;;;2.30;;
6858;SDS011;3468;42.824;23.240;2023-05-13T07:24:31;4.43;;;2.90;;
6858;SDS011;3468;42.824;23.240;2023-05-13T07:26:57;5.13;;;2.50;;
6858;SDS011;3468;42.824;23.240;2023-05-13T07:29:25;7.37;;;2.77;;
6858;SDS011;3468;42.824;23.240;2023-05-13T07:31:52;5.53;;;3.00;;
6858;SDS011;3468;42.824;23.240;2023-05-13T07:34:19;6.70;;;3.10;;
6858;SDS011;3468;42.824;23.240;2023-05-13T07:36:45;3.93;;;2.80;;
6858;SDS011;3468;42.824;23.240;2023-05-13T07:39:13;7.70;;;3.70;;
6858;SDS011;3468;42.824;23.240;2023-05-13T07:41:40;7.30;;;4.03;;
6858;SDS011;3468;42.824;23.240;2023-05-13T07:44:07;6.40;;;3.77;;
6858;SDS011;3468;42.824;23.240;2023-05-13T07:46:37;6.33;;;3.67;;
6858;SDS011;3468;42.824;23.240;2023-05-13T07:49:03;11.43;;;3.93;;
6858;SDS011;3468;42.824;23.240;2023-05-13T07:51:32;8.90;;;4.40;;
6858;SDS011;3468;42.824;23.240;2023-05-13T07:53:59;8.63;;;4.97;;
6858;SDS011;3468;42.824;23.240;2023-05-13T07:56:28;9.73;;;4.57;;
6858;SDS011;3468;42.824;23.240;2023-05-13T07:58:55;10.40;;;5.97;;
6858;SDS011;3468;42.824;23.240;2023-05-13T08:01:22;12.10;;;6.27;;
6858;SDS011;3468;42.824;23.240;2023-05-13T08:03:50;11.97;;;6.37;;
6858;SDS011;3468;42.824;23.240;2023-05-13T08:06:16;15.70;;;6.00;;
6858;SDS011;3468;42.824;23.240;2023-05-13T08:08:43;11.97;;;6.47;;
6858;SDS011;3468;42.824;23.240;2023-05-13T08:11:10;10.87;;;5.87;;
6858;SDS011;3468;42.824;23.240;2023-05-13T08:13:38;16.37;;;6.60;;
6858;SDS011;3468;42.824;23.240;2023-05-13T08:16:05;16.55;;;7.45;;
6858;SDS011;3468;42.824;23.240;2023-05-13T08:18:32;14.95;;;7.35;;
6858;SDS011;3468;42.824;23.240;2023-05-13T08:20:59;17.40;;;8.23;;
6858;SDS011;3468;42.824;23.240;2023-05-13T08:23:26;14.73;;;6.72;;
6858;SDS011;3468;42.824;23.240;2023-05-13T08:25:52;10.75;;;5.40;;
6858;SDS011;3468;42.824;23.240;2023-05-13T08:28:19;10.60;;;5.85;;
6858;SDS011;3468;42.824;23.240;2023-05-13T08:30:47;8.77;;;5.15;;
6858;SDS011;3468;42.824;23.240;2023-05-13T08:33:14;14.57;;;5.82;;
6858;SDS011;3468;42.824;23.240;2023-05-13T08:35:41;8.93;;;5.20;;
6858;SDS011;3468;42.824;23.240;2023-05-13T08:38:07;8.57;;;5.10;;
6858;SDS011;3468;42.824;23.240;2023-05-13T08:40:34;8.70;;;5.07;;
6858;SDS011;3468;42.824;23.240;2023-05-13T08:43:02;8.45;;;4.95;;
6858;SDS011;3468;42.824;23.240;2023-05-13T08:45:30;10.90;;;4.97;;
6858;SDS011;3468;42.824;23.240;2023-05-13T08:48:00;7.60;;;4.53;;
6858;SDS011;3468;42.824;23.240;2023-05-13T08:50:28;10.63;;;4.72;;
6858;SDS011;3468;42.824;23.240;2023-05-13T08:52:56;8.73;;;4.78;;
6858;SDS011;3468;42.824;23.240;2023-05-13T08:55:23;11.45;;;4.85;;
6858;SDS011;3468;42.824;23.240;2023-05-13T08:57:49;7.60;;;4.88;;
6858;SDS011;3468;42.824;23.240;2023-05-13T09:00:17;10.50;;;5.68;;
6858;SDS011;3468;42.824;23.240;2023-05-13T09:02:44;9.95;;;5.53;;
6858;SDS011;3468;42.824;23.240;2023-05-13T09:05:12;8.48;;;4.82;;
6858;SDS011;3468;42.824;23.240;2023-05-13T09:07:40;8.88;;;4.13;;
6858;SDS011;3468;42.824;23.240;2023-05-13T09:10:07;8.15;;;4.95;;
6858;SDS011;3468;42.824;23.240;2023-05-13T09:12:41;7.05;;;4.35;;
6858;SDS011;3468;42.824;23.240;2023-05-13T09:15:09;8.23;;;4.72;;
6858;SDS011;3468;42.824;23.240;2023-05-13T09:17:37;7.20;;;4.30;;
6858;SDS011;3468;42.824;23.240;2023-05-13T09:20:06;5.85;;;4.57;;
6858;SDS011;3468;42.824;23.240;2023-05-13T09:22:35;9.48;;;4.70;;
6858;SDS011;3468;42.824;23.240;2023-05-13T09:25:06;6.20;;;4.38;;
6858;SDS011;3468;42.824;23.240;2023-05-13T09:27:36;10.30;;;4.70;;
6858;SDS011;3468;42.824;23.240;2023-05-13T09:30:05;7.57;;;4.45;;
6858;SDS011;3468;42.824;23.240;2023-05-13T09:32:32;7.20;;;4.03;;
6858;SDS011;3468;42.824;23.240;2023-05-13T09:35:07;7.40;;;4.60;;
6858;SDS011;3468;42.824;23.240;2023-05-13T09:37:36;6.80;;;4.13;;
6858;SDS011;3468;42.824;23.240;2023-05-13T09:40:04;10.00;;;4.60;;
6858;SDS011;3468;42.824;23.240;2023-05-13T09:42:31;7.65;;;5.07;;
6858;SDS011;3468;42.824;23.240;2023-05-13T09:45:02;6.45;;;4.38;;
6858;SDS011;3468;42.824;23.240;2023-05-13T09:47:30;7.63;;;4.72;;
6858;SDS011;3468;42.824;23.240;2023-05-13T09:49:57;10.57;;;5.22;;
6858;SDS011;3468;42.824;23.240;2023-05-13T09:52:28;14.88;;;7.97;;
6858;SDS011;3468;42.824;23.240;2023-05-13T09:54:57;9.13;;;5.03;;
6858;SDS011;3468;42.824;23.240;2023-05-13T09:57:25;24.48;;;14.40;;
6858;SDS011;3468;42.824;23.240;2023-05-13T09:59:55;7.63;;;4.70;;
6858;SDS011;3468;42.824;23.240;2023-05-13T10:02:23;9.18;;;5.30;;
6858;SDS011;3468;42.824;23.240;2023-05-13T10:04:51;11.88;;;6.88;;
6858;SDS011;3468;42.824;23.240;2023-05-13T10:07:18;5.85;;;4.70;;
6858;SDS011;3468;42.824;23.240;2023-05-13T10:09:48;9.48;;;4.82;;
6858;SDS011;3468;42.824;23.240;2023-05-13T10:12:20;6.88;;;4.70;;
6858;SDS011;3468;42.824;23.240;2023-05-13T10:14:48;9.75;;;5.20;;
6858;SDS011;3468;42.824;23.240;2023-05-13T10:17:17;8.40;;;4.65;;
6858;SDS011;3468;42.824;23.240;2023-05-13T10:19:45;7.93;;;5.10;;
6858;SDS011;3468;42.824;23.240;2023-05-13T10:22:13;9.40;;;5.43;;
6858;SDS011;3468;42.824;23.240;2023-05-13T10:24:41;8.40;;;5.60;;
6858;SDS011;3468;42.824;23.240;2023-05-13T10:27:09;6.65;;;4.90;;
6858;SDS011;3468;42.824;23.240;2023-05-13T10:29:38;8.25;;;4.72;;
6858;SDS011;3468;42.824;23.240;2023-05-13T10:32:06;8.85;;;4.78;;
6858;SDS011;3468;42.824;23.240;2023-05-13T10:34:34;7.47;;;5.03;;
6858;SDS011;3468;42.824;23.240;2023-05-13T10:37:08;11.23;;;4.97;;
6858;SDS011;3468;42.824;23.240;2023-05-13T10:40:11;8.60;;;5.30;;
6858;SDS011;3468;42.824;23.240;2023-05-13T10:42:48;9.00;;;4.97;;
6858;SDS011;3468;42.824;23.240;2023-05-13T10:45:25;8.50;;;4.70;;
6858;SDS011;3468;42.824;23.240;2023-05-13T10:47:53;8.00;;;4.82;;
6858;SDS011;3468;42.824;23.240;2023-05-13T10:50:22;6.13;;;4.43;;
6858;SDS011;3468;42.824;23.240;2023-05-13T10:52:49;8.57;;;4.72;;
6858;SDS011;3468;42.824;23.240;2023-05-13T10:55:17;6.93;;;4.10;;
6858;SDS011;3468;42.824;23.240;2023-05-13T10:58:03;6.32;;;4.47;;
6858;SDS011;3468;42.824;23.240;2023-05-13T11:00:35;5.75;;;4.93;;
6858;SDS011;3468;42.824;23.240;2023-05-13T11:05:58;7.75;;;5.65;;
6858;SDS011;3468;42.824;23.240;2023-05-13T11:08:31;8.23;;;4.72;;
6858;SDS011;3468;42.824;23.240;2023-05-13T11:11:02;6.50;;;4.63;;
6858;SDS011;3468;42.824;23.240;2023-05-13T11:13:41;7.68;;;4.47;;
6858;SDS011;3468;42.824;23.240;2023-05-13T11:16:10;8.25;;;4.15;;
6858;SDS011;3468;42.824;23.240;2023-05-13T11:18:38;7.95;;;4.32;;
6858;SDS011;3468;42.824;23.240;2023-05-13T11:21:05;7.40;;;4.40;;
6858;SDS011;3468;42.824;23.240;2023-05-13T11:23:34;4.40;;;3.50;;
6858;SDS011;3468;42.824;23.240;2023-05-13T11:26:16;6.32;;;4.55;;
6858;SDS011;3468;42.824;23.240;2023-05-13T11:28:51;6.72;;;3.72;;
6858;SDS011;3468;42.824;23.240;2023-05-13T11:31:21;6.68;;;4.07;;
6858;SDS011;3468;42.824;23.240;2023-05-13T11:34:07;8.27;;;4.75;;
6858;SDS011;3468;42.824;23.240;2023-05-13T11:36:35;7.45;;;4.15;;
6858;SDS011;3468;42.824;23.240;2023-05-13T11:39:09;7.65;;;4.47;;
6858;SDS011;3468;42.824;23.240;2023-05-13T11:41:41;5.72;;;4.25;;
6858;SDS011;3468;42.824;23.240;2023-05-13T11:44:10;7.80;;;4.38;;
6858;SDS011;3468;42.824;23.240;2023-05-13T11:46:49;7.47;;;4.53;;
6858;SDS011;3468;42.824;23.240;2023-05-13T11:49:30;8.73;;;4.32;;
6858;SDS011;3468;42.824;23.240;2023-05-13T11:51:58;10.15;;;4.28;;
6858;SDS011;3468;42.824;23.240;2023-05-13T11:54:25;6.15;;;4.22;;
6858;SDS011;3468;42.824;23.240;2023-05-13T11:56:53;6.18;;;4.07;;
6858;SDS011;3468;42.824;23.240;2023-05-13T11:59:19;5.32;;;3.67;;
6858;SDS011;3468;42.824;23.240;2023-05-13T12:01:58;7.82;;;4.75;;
6858;SDS011;3468;42.824;23.240;2023-05-13T12:04:28;8.27;;;6.18;;
6858;SDS011;3468;42.824;23.240;2023-05-13T12:06:56;5.00;;;4.13;;
6858;SDS011;3468;42.824;23.240;2023-05-13T12:09:23;9.73;;;6.28;;
6858;SDS011;3468;42.824;23.240;2023-05-13T12:11:50;7.32;;;3.80;;
6858;SDS011;3468;42.824;23.240;2023-05-13T12:14:18;4.93;;;3.72;;
6858;SDS011;3468;42.824;23.240;2023-05-13T12:16:45;13.52;;;6.18;;
6858;SDS011;3468;42.824;23.240;2023-05-13T12:19:15;5.55;;;4.25;;
6858;SDS011;3468;42.824;23.240;2023-05-13T12:21:42;5.22;;;3.80;;
6858;SDS011;3468;42.824;23.240;2023-05-13T12:24:18;4.30;;;3.80;;
6858;SDS011;3468;42.824;23.240;2023-05-13T12:26:46;8.05;;;4.13;;
6858;SDS011;3468;42.824;23.240;2023-05-13T12:29:13;4.95;;;3.97;;
6858;SDS011;3468;42.824;23.240;2023-05-13T12:31:40;7.30;;;4.10;;
6858;SDS011;3468;42.824;23.240;2023-05-13T12:34:08;4.45;;;3.45;;
6858;SDS011;3468;42.824;23.240;2023-05-13T12:36:37;6.30;;;3.70;;
6858;SDS011;3468;42.824;23.240;2023-05-13T12:39:04;7.00;;;3.92;;
6858;SDS011;3468;42.824;23.240;2023-05-13T12:41:33;3.90;;;3.50;;
6858;SDS011;3468;42.824;23.240;2023-05-13T12:44:02;6.63;;;4.25;;
6858;SDS011;3468;42.824;23.240;2023-05-13T12:46:30;6.20;;;3.30;;
6858;SDS011;3468;42.824;23.240;2023-05-13T12:48:59;5.07;;;3.28;;
6858;SDS011;3468;42.824;23.240;2023-05-13T12:51:26;4.40;;;3.33;;
6858;SDS011;3468;42.824;23.240;2023-05-13T12:53:56;6.25;;;2.78;;
6858;SDS011;3468;42.824;23.240;2023-05-13T12:56:23;5.10;;;3.47;;
6858;SDS011;3468;42.824;23.240;2023-05-13T12:58:53;3.80;;;2.90;;
6858;SDS011;3468;42.824;23.240;2023-05-13T13:01:20;7.07;;;3.13;;
6858;SDS011;3468;42.824;23.240;2023-05-13T13:03:47;5.43;;;3.40;;
6858;SDS011;3468;42.824;23.240;2023-05-13T13:06:14;3.78;;;3.25;;
6858;SDS011;3468;42.824;23.240;2023-05-13T13:08:41;15.80;;;9.50;;
6858;SDS011;3468;42.824;23.240;2023-05-13T13:11:09;9.68;;;6.40;;
6858;SDS011;3468;42.824;23.240;2023-05-13T13:13:38;8.43;;;5.05;;
6858;SDS011;3468;42.824;23.240;2023-05-13T13:16:05;5.57;;;3.53;;
6858;SDS011;3468;42.824;23.240;2023-05-13T13:18:33;4.75;;;2.92;;
6858;SDS011;3468;42.824;23.240;2023-05-13T13:20:59;4.38;;;3.78;;
6858;SDS011;3468;42.824;23.240;2023-05-13T13:23:26;6.28;;;3.55;;
6858;SDS011;3468;42.824;23.240;2023-05-13T13:25:53;5.45;;;3.33;;
6858;SDS011;3468;42.824;23.240;2023-05-13T13:28:23;5.60;;;3.40;;
6858;SDS011;3468;42.824;23.240;2023-05-13T13:30:50;4.28;;;3.55;;
6858;SDS011;3468;42.824;23.240;2023-05-13T13:33:17;6.28;;;3.22;;
6858;SDS011;3468;42.824;23.240;2023-05-13T13:35:44;4.10;;;3.55;;
6858;SDS011;3468;42.824;23.240;2023-05-13T13:38:14;4.53;;;2.67;;
6858;SDS011;3468;42.824;23.240;2023-05-13T13:41:06;3.83;;;3.08;;
6858;SDS011;3468;42.824;23.240;2023-05-13T13:43:52;6.18;;;3.30;;
6858;SDS011;3468;42.824;23.240;2023-05-13T13:46:19;4.63;;;3.60;;
6858;SDS011;3468;42.824;23.240;2023-05-13T13:48:46;4.68;;;3.72;;
6858;SDS011;3468;42.824;23.240;2023-05-13T13:51:13;4.72;;;3.70;;
6858;SDS011;3468;42.824;23.240;2023-05-13T13:53:39;6.85;;;3.83;;
6858;SDS011;3468;42.824;23.240;2023-05-13T13:56:06;8.38;;;4.45;;
6858;SDS011;3468;42.824;23.240;2023-05-13T13:58:33;6.40;;;3.33;;
6858;SDS011;3468;42.824;23.240;2023-05-13T14:01:02;7.63;;;4.78;;
6858;SDS011;3468;42.824;23.240;2023-05-13T14:03:28;5.63;;;3.80;;
6858;SDS011;3468;42.824;23.240;2023-05-13T14:05:55;7.78;;;4.22;;
6858;SDS011;3468;42.824;23.240;2023-05-13T14:08:22;4.93;;;3.92;;
6858;SDS011;3468;42.824;23.240;2023-05-13T14:10:49;5.88;;;3.22;;
6858;SDS011;3468;42.824;23.240;2023-05-13T14:13:16;5.07;;;3.20;;
6858;SDS011;3468;42.824;23.240;2023-05-13T14:15:43;8.98;;;3.60;;
6858;SDS011;3468;42.824;23.240;2023-05-13T14:18:11;4.88;;;3.50;;
6858;SDS011;3468;42.824;23.240;2023-05-13T14:20:38;6.07;;;4.50;;
6858;SDS011;3468;42.824;23.240;2023-05-13T14:23:04;6.05;;;3.60;;
6858;SDS011;3468;42.824;23.240;2023-05-13T14:25:31;6.95;;;3.75;;
6858;SDS011;3468;42.824;23.240;2023-05-13T14:27:58;3.70;;;3.05;;
6858;SDS011;3468;42.824;23.240;2023-05-13T14:30:25;5.95;;;3.83;;
6858;SDS011;3468;42.824;23.240;2023-05-13T14:32:52;7.10;;;3.63;;
6858;SDS011;3468;42.824;23.240;2023-05-13T14:35:21;10.18;;;3.75;;
6858;SDS011;3468;42.824;23.240;2023-05-13T14:37:51;5.10;;;3.60;;
6858;SDS011;3468;42.824;23.240;2023-05-13T14:40:22;7.78;;;3.75;;
6858;SDS011;3468;42.824;23.240;2023-05-13T14:42:49;5.90;;;3.35;;
6858;SDS011;3468;42.824;23.240;2023-05-13T14:45:16;5.20;;;3.78;;
6858;SDS011;3468;42.824;23.240;2023-05-13T14:47:43;5.32;;;3.40;;
6858;SDS011;3468;42.824;23.240;2023-05-13T14:50:10;6.80;;;4.63;;
6858;SDS011;3468;42.824;23.240;2023-05-13T14:52:40;7.57;;;4.13;;
6858;SDS011;3468;42.824;23.240;2023-05-13T14:55:07;5.45;;;3.85;;
6858;SDS011;3468;42.824;23.240;2023-05-13T14:57:35;7.32;;;3.40;;
6858;SDS011;3468;42.824;23.240;2023-05-13T15:00:02;5.22;;;3.42;;
6858;SDS011;3468;42.824;23.240;2023-05-13T15:02:29;9.45;;;3.20;;
6858;SDS011;3468;42.824;23.240;2023-05-13T15:04:56;5.82;;;3.60;;
6858;SDS011;3468;42.824;23.240;2023-05-13T15:07:23;6.43;;;3.50;;
6858;SDS011;3468;42.824;23.240;2023-05-13T15:09:51;4.88;;;2.92;;